createdAt,value
2019-04-25T00:02:12.490Z,11.90
2019-04-25T00:04:42.355Z,11.90
2019-04-25T00:07:11.829Z,11.90
2019-04-25T00:09:42.786Z,11.80
2019-04-25T00:12:12.145Z,11.70
2019-04-25T00:14:41.665Z,11.60
2019-04-25T00:17:11.373Z,11.50
2019-04-25T00:19:40.235Z,11.50
2019-04-25T00:22:13.464Z,11.50
2019-04-25T00:24:45.832Z,11.60
2019-04-25T00:27:13.802Z,11.80
2019-04-25T00:29:43.848Z,12.00
2019-04-25T00:32:11.722Z,12.10
2019-04-25T00:34:40.590Z,12.10
2019-04-25T00:37:09.511Z,12.40
2019-04-25T00:39:37.603Z,12.30
2019-04-25T00:42:05.959Z,12.30
2019-04-25T00:44:33.984Z,12.30
2019-04-25T00:47:08.123Z,12.10
2019-04-25T00:49:36.099Z,11.90
2019-04-25T00:52:04.069Z,11.90
2019-04-25T00:54:32.071Z,12.00
2019-04-25T00:57:00.002Z,12.00
2019-04-25T00:59:41.864Z,12.10
2019-04-25T01:02:12.780Z,12.10
2019-04-25T01:04:41.942Z,12.10
2019-04-25T01:07:10.159Z,12.10
2019-04-25T01:09:38.143Z,12.10
2019-04-25T01:12:06.307Z,12.10
2019-04-25T01:14:34.341Z,12.10
2019-04-25T01:17:02.359Z,12.10
2019-04-25T01:19:30.355Z,12.10
2019-04-25T01:21:58.376Z,12.10
2019-04-25T01:24:26.386Z,12.10
2019-04-25T01:26:54.643Z,12.10
2019-04-25T01:29:23.476Z,12.20
2019-04-25T01:31:52.698Z,12.10
2019-04-25T01:34:23.801Z,12.20
2019-04-25T01:36:59.734Z,12.20
2019-04-25T01:39:44.457Z,12.10
2019-04-25T01:42:28.658Z,12.00
2019-04-25T01:44:58.009Z,12.00
2019-04-25T01:47:26.966Z,11.90
2019-04-25T01:49:55.552Z,11.90
2019-04-25T01:52:24.419Z,11.90
2019-04-25T01:54:54.360Z,11.90
2019-04-25T01:57:22.070Z,11.90
2019-04-25T01:59:50.045Z,11.90
2019-04-25T02:02:19.544Z,11.90
2019-04-25T02:04:47.523Z,11.90
2019-04-25T02:07:15.502Z,12.00
2019-04-25T02:09:43.641Z,12.10
2019-04-25T02:12:15.363Z,12.20
2019-04-25T02:14:43.569Z,12.30
2019-04-25T02:17:11.585Z,12.40
2019-04-25T02:19:39.624Z,12.40
2019-04-25T02:22:07.596Z,12.50
2019-04-25T02:24:35.556Z,12.40
2019-04-25T02:27:04.634Z,12.70
2019-04-25T02:29:33.245Z,12.80
2019-04-25T02:32:05.988Z,12.80
2019-04-25T02:34:34.365Z,12.80
2019-04-25T02:37:04.231Z,12.70
2019-04-25T02:39:30.726Z,12.60
2019-04-25T02:42:00.601Z,12.50
2019-04-25T02:44:28.521Z,12.40
2019-04-25T02:47:06.888Z,12.50
2019-04-25T02:49:38.787Z,12.50
2019-04-25T02:52:17.683Z,12.40
2019-04-25T02:54:45.003Z,12.40
2019-04-25T02:57:14.603Z,12.40
2019-04-25T02:59:44.824Z,12.40
2019-04-25T03:02:12.420Z,12.30
2019-04-25T03:04:40.354Z,12.20
2019-04-25T03:07:11.348Z,12.20
2019-04-25T03:09:37.989Z,12.10
2019-04-25T03:12:07.631Z,12.10
2019-04-25T03:14:35.638Z,12.10
2019-04-25T03:17:05.187Z,12.20
2019-04-25T03:19:51.249Z,12.30
2019-04-25T03:22:29.539Z,12.30
2019-04-25T03:24:59.627Z,12.40
2019-04-25T03:27:27.212Z,12.60
2019-04-25T03:29:55.175Z,12.60
2019-04-25T03:32:27.938Z,12.60
2019-04-25T03:34:53.128Z,12.50
2019-04-25T03:37:23.401Z,12.50
2019-04-25T03:39:51.498Z,12.40
2019-04-25T03:42:19.481Z,12.40
2019-04-25T03:44:47.425Z,12.40
2019-04-25T03:47:15.424Z,12.20
2019-04-25T03:49:43.507Z,12.10
2019-04-25T03:52:12.247Z,12.00
2019-04-25T03:54:41.220Z,11.90
2019-04-25T03:57:09.180Z,11.80
2019-04-25T03:59:37.150Z,11.80
2019-04-25T04:02:06.574Z,12.00
2019-04-25T04:04:34.737Z,12.20
2019-04-25T04:07:04.434Z,12.10
2019-04-25T04:09:33.716Z,11.90
2019-04-25T04:12:03.334Z,11.90
2019-04-25T04:14:31.441Z,11.90
2019-04-25T04:17:01.011Z,12.00
2019-04-25T04:19:29.073Z,12.00
2019-04-25T04:22:01.123Z,11.90
2019-04-25T04:24:30.730Z,12.00
2019-04-25T04:27:09.188Z,12.00
2019-04-25T04:29:38.418Z,12.00
2019-04-25T04:32:06.980Z,12.10
2019-04-25T04:34:34.944Z,12.30
2019-04-25T04:37:03.723Z,12.40
2019-04-25T04:39:33.707Z,12.50
2019-04-25T04:42:01.415Z,12.50
2019-04-25T04:44:29.380Z,12.50
2019-04-25T04:46:57.363Z,12.70
2019-04-25T04:49:25.426Z,12.70
2019-04-25T04:51:54.182Z,12.60
2019-04-25T04:54:23.103Z,12.50
2019-04-25T04:56:51.184Z,12.50
2019-04-25T04:59:19.204Z,12.70
2019-04-25T05:02:03.585Z,12.80
2019-04-25T05:04:49.455Z,12.90
2019-04-25T05:07:25.378Z,12.90
2019-04-25T05:09:54.003Z,13.00
2019-04-25T05:12:21.986Z,13.00
2019-04-25T05:14:49.964Z,12.90
2019-04-25T05:17:17.958Z,13.00
2019-04-25T05:19:45.926Z,13.20
2019-04-25T05:22:14.914Z,13.40
2019-04-25T05:24:43.858Z,13.50
2019-04-25T05:27:12.779Z,13.70
2019-04-25T05:29:41.394Z,13.80
2019-04-25T05:32:09.457Z,14.00
2019-04-25T05:34:37.422Z,14.10
2019-04-25T05:37:05.379Z,14.30
2019-04-25T05:39:33.549Z,14.80
2019-04-25T05:42:04.283Z,15.60
2019-04-25T05:44:34.232Z,16.60
2019-04-25T05:47:02.255Z,17.50
2019-04-25T05:49:30.241Z,17.80
2019-04-25T05:51:58.242Z,18.10
2019-04-25T05:54:26.914Z,18.80
2019-04-25T05:56:54.885Z,19.30
2019-04-25T05:59:24.868Z,19.60
2019-04-25T06:01:53.813Z,20.50
2019-04-25T06:04:23.824Z,21.10
2019-04-25T06:06:53.081Z,21.50
2019-04-25T06:09:37.901Z,22.00
2019-04-25T06:12:18.108Z,22.20
2019-04-25T06:14:46.207Z,22.50
2019-04-25T06:17:23.653Z,22.90
2019-04-25T06:19:55.948Z,23.30
2019-04-25T06:22:43.458Z,24.20
2019-04-25T06:25:15.978Z,24.40
2019-04-25T06:27:51.181Z,25.30
2019-04-25T06:30:15.778Z,26.40
2019-04-25T06:32:43.947Z,26.30
2019-04-25T06:35:11.907Z,27.60
2019-04-25T06:37:39.907Z,28.80
2019-04-25T06:40:08.107Z,29.30
2019-04-25T06:42:36.074Z,29.60
2019-04-25T06:45:22.810Z,29.50
2019-04-25T06:47:55.954Z,29.50
2019-04-25T06:50:24.918Z,29.60
2019-04-25T06:52:53.772Z,29.20
2019-04-25T06:55:22.871Z,27.90
2019-04-25T06:57:51.360Z,26.70
2019-04-25T07:00:19.659Z,26.00
2019-04-25T07:02:47.661Z,25.40
2019-04-25T07:05:26.548Z,25.00
2019-04-25T07:07:45.525Z,24.40
2019-04-25T07:10:13.577Z,23.90
2019-04-25T07:12:41.539Z,23.80
2019-04-25T07:15:09.666Z,23.70
2019-04-25T07:17:37.635Z,23.30
2019-04-25T07:20:06.246Z,23.00
2019-04-25T07:22:35.394Z,22.60
2019-04-25T07:25:04.720Z,22.00
2019-04-25T07:27:50.797Z,21.70
2019-04-25T07:30:32.204Z,21.30
2019-04-25T07:33:10.358Z,21.10
2019-04-25T07:35:38.331Z,21.10
2019-04-25T07:38:06.249Z,21.10
2019-04-25T07:40:35.027Z,20.90
2019-04-25T07:43:04.865Z,20.70
2019-04-25T07:45:34.680Z,20.60
2019-04-25T07:48:04.005Z,20.40
2019-04-25T07:50:32.598Z,20.50
2019-04-25T07:53:01.755Z,20.40
2019-04-25T07:55:29.743Z,20.40
2019-04-25T07:57:57.702Z,20.60
2019-04-25T08:00:27.276Z,20.50
2019-04-25T08:02:55.429Z,20.50
2019-04-25T08:05:24.157Z,20.50
2019-04-25T08:07:53.588Z,20.60
2019-04-25T08:10:21.678Z,20.70
2019-04-25T08:12:49.732Z,20.90
2019-04-25T08:15:21.709Z,21.20
2019-04-25T08:18:04.079Z,21.40
2019-04-25T08:20:32.837Z,21.20
2019-04-25T08:23:01.805Z,21.30
2019-04-25T08:25:30.742Z,21.30
2019-04-25T08:27:58.792Z,21.20
2019-04-25T08:30:26.724Z,21.20
2019-04-25T08:32:54.783Z,21.20
2019-04-25T08:35:24.121Z,21.10
2019-04-25T08:37:53.638Z,21.20
2019-04-25T08:40:23.668Z,21.20
2019-04-25T08:42:51.471Z,21.30
2019-04-25T08:45:19.750Z,21.30
2019-04-25T08:47:47.773Z,21.30
2019-04-25T08:50:37.179Z,21.20
2019-04-25T08:53:03.977Z,21.20
2019-04-25T08:55:40.203Z,21.30
2019-04-25T08:58:26.242Z,21.30
2019-04-25T09:01:04.586Z,21.20
2019-04-25T09:03:35.452Z,21.20
2019-04-25T09:06:03.998Z,21.20
2019-04-25T09:08:32.907Z,21.30
2019-04-25T09:11:03.454Z,21.30
2019-04-25T09:13:31.468Z,21.30
2019-04-25T09:15:59.398Z,21.30
2019-04-25T09:18:27.450Z,21.30
2019-04-25T09:20:55.398Z,21.30
2019-04-25T09:23:23.691Z,21.40
2019-04-25T09:25:51.804Z,21.50
2019-04-25T09:28:19.794Z,21.50
2019-04-25T09:30:47.757Z,21.60
2019-04-25T09:33:15.802Z,21.70
2019-04-25T09:35:45.742Z,21.80
2019-04-25T09:38:13.433Z,21.80
2019-04-25T09:40:41.912Z,21.70
2019-04-25T09:43:10.034Z,21.70
2019-04-25T09:45:55.941Z,21.80
2019-04-25T09:48:44.582Z,21.90
2019-04-25T09:51:14.859Z,22.00
2019-04-25T09:53:49.632Z,22.00
2019-04-25T09:56:31.658Z,22.00
2019-04-25T09:59:10.284Z,22.00
2019-04-25T10:01:38.700Z,22.00
2019-04-25T10:04:06.667Z,22.10
2019-04-25T10:06:34.664Z,22.30
2019-04-25T10:09:02.707Z,22.30
2019-04-25T10:11:30.777Z,22.30
2019-04-25T10:14:16.708Z,22.30
2019-04-25T10:16:45.569Z,22.40
2019-04-25T10:19:13.608Z,22.30
2019-04-25T10:21:41.926Z,22.30
2019-04-25T10:24:09.858Z,22.20
2019-04-25T10:26:38.630Z,22.30
2019-04-25T10:29:07.558Z,22.40
2019-04-25T10:31:35.608Z,22.40
2019-04-25T10:34:03.897Z,22.40
2019-04-25T10:36:33.515Z,22.40
2019-04-25T10:39:07.838Z,22.40
2019-04-25T10:41:31.303Z,22.40
2019-04-25T10:43:59.329Z,22.40
2019-04-25T10:46:27.304Z,22.50
2019-04-25T10:48:56.174Z,22.50
2019-04-25T10:51:24.282Z,22.30
2019-04-25T10:53:53.863Z,22.20
2019-04-25T10:56:21.899Z,22.30
2019-04-25T10:58:49.931Z,22.30
2019-04-25T11:01:17.905Z,22.30
2019-04-25T11:03:48.366Z,22.30
2019-04-25T11:06:18.325Z,22.30
2019-04-25T11:08:46.989Z,22.30
2019-04-25T11:11:15.075Z,22.50
2019-04-25T11:13:44.297Z,22.60
2019-04-25T11:16:13.767Z,22.60
2019-04-25T11:18:41.878Z,22.60
2019-04-25T11:21:10.505Z,22.70
2019-04-25T11:23:38.445Z,22.70
2019-04-25T11:26:06.437Z,22.60
2019-04-25T11:28:34.797Z,22.60
2019-04-25T11:31:04.149Z,22.40
2019-04-25T11:33:33.514Z,22.40
2019-04-25T11:36:01.514Z,22.40
2019-04-25T11:38:31.082Z,22.40
2019-04-25T11:41:14.132Z,22.40
2019-04-25T11:43:43.536Z,22.50
2019-04-25T11:46:11.798Z,22.50
2019-04-25T11:48:39.816Z,22.70
2019-04-25T11:51:07.914Z,22.80
2019-04-25T11:53:35.881Z,22.80
2019-04-25T11:56:03.890Z,22.80
2019-04-25T11:58:31.868Z,22.80
2019-04-25T12:00:59.803Z,22.70
2019-04-25T12:03:27.937Z,22.70
2019-04-25T12:05:55.897Z,22.80
2019-04-25T12:08:24.306Z,22.90
2019-04-25T12:10:53.922Z,23.00
2019-04-25T12:13:21.977Z,23.00
2019-04-25T12:15:49.955Z,23.10
2019-04-25T12:18:18.356Z,23.20
2019-04-25T12:20:47.227Z,23.20
2019-04-25T12:23:15.511Z,23.30
2019-04-25T12:25:45.307Z,23.60
2019-04-25T12:28:14.147Z,23.60
2019-04-25T12:30:43.748Z,23.90
2019-04-25T12:33:20.337Z,24.10
2019-04-25T12:35:43.524Z,24.20
2019-04-25T12:38:11.295Z,24.10
2019-04-25T12:40:39.265Z,24.10
2019-04-25T12:43:07.205Z,24.10
2019-04-25T12:45:52.852Z,24.00
2019-04-25T12:48:20.994Z,24.20
2019-04-25T12:50:49.874Z,24.60
2019-04-25T12:53:18.124Z,24.50
2019-04-25T12:55:47.370Z,24.70
2019-04-25T12:58:15.469Z,24.60
2019-04-25T13:00:49.524Z,24.40
2019-04-25T13:03:14.313Z,24.70
2019-04-25T13:05:44.123Z,24.80
2019-04-25T13:08:15.401Z,25.00
2019-04-25T13:10:44.446Z,24.90
2019-04-25T13:13:15.015Z,24.70
2019-04-25T13:15:45.846Z,24.80
2019-04-25T13:18:12.361Z,24.60
2019-04-25T13:20:40.292Z,24.60
2019-04-25T13:23:08.716Z,24.80
2019-04-25T13:25:36.894Z,24.60
2019-04-25T13:28:15.293Z,24.40
2019-04-25T13:30:44.813Z,24.20
2019-04-25T13:33:15.192Z,24.20
2019-04-25T13:35:44.814Z,24.30
2019-04-25T13:38:12.774Z,24.50
2019-04-25T13:40:40.764Z,24.60
2019-04-25T13:43:08.750Z,24.50
2019-04-25T13:45:36.715Z,24.40
2019-04-25T13:48:04.972Z,24.40
2019-04-25T13:50:34.402Z,24.20
2019-04-25T13:53:03.360Z,24.20
2019-04-25T13:55:32.164Z,24.10
2019-04-25T13:58:00.241Z,24.10
2019-04-25T14:00:28.214Z,24.00
2019-04-25T14:02:56.173Z,24.00
2019-04-25T14:05:24.928Z,24.00
2019-04-25T14:07:53.925Z,24.00
2019-04-25T14:10:23.018Z,24.10
2019-04-25T14:12:51.533Z,24.20
2019-04-25T14:15:21.784Z,24.20
2019-04-25T14:17:57.354Z,24.20
2019-04-25T14:20:32.701Z,24.20
2019-04-25T14:23:00.782Z,24.30
2019-04-25T14:25:29.722Z,24.30
2019-04-25T14:27:57.781Z,24.20
2019-04-25T14:30:28.223Z,24.10
2019-04-25T14:32:56.300Z,23.80
2019-04-25T14:35:24.259Z,23.60
2019-04-25T14:37:53.834Z,23.50
2019-04-25T14:40:23.011Z,23.50
2019-04-25T14:42:51.618Z,23.40
2019-04-25T14:45:21.572Z,23.50
2019-04-25T14:47:50.538Z,23.40
2019-04-25T14:50:18.477Z,23.30
2019-04-25T14:52:46.412Z,23.20
2019-04-25T14:55:16.021Z,23.30
2019-04-25T14:57:44.111Z,23.20
2019-04-25T15:00:13.610Z,23.10
2019-04-25T15:02:41.637Z,23.00
2019-04-25T15:05:09.869Z,23.10
2019-04-25T15:07:37.848Z,23.00
2019-04-25T15:10:06.351Z,23.00
2019-04-25T15:12:34.316Z,23.00
2019-04-25T15:15:02.243Z,23.00
2019-04-25T15:17:43.332Z,22.90
2019-04-25T15:19:59.913Z,22.90
2019-04-25T15:22:27.989Z,22.80
2019-04-25T15:24:55.978Z,22.70
2019-04-25T15:27:25.082Z,22.60
2019-04-25T15:29:53.192Z,22.60
2019-04-25T15:32:22.793Z,22.50
2019-04-25T15:34:52.358Z,22.50
2019-04-25T15:37:27.975Z,22.50
2019-04-25T15:39:57.508Z,22.50
2019-04-25T15:42:29.738Z,22.50
2019-04-25T15:45:11.121Z,22.50
2019-04-25T15:47:39.175Z,22.50
2019-04-25T15:50:07.466Z,22.50
2019-04-25T15:52:36.027Z,22.50
2019-04-25T15:55:07.507Z,22.40
2019-04-25T15:57:34.513Z,22.40
2019-04-25T16:00:02.536Z,22.40
2019-04-25T16:02:30.474Z,22.30
2019-04-25T16:04:58.463Z,22.10
2019-04-25T16:07:27.202Z,22.00
2019-04-25T16:09:55.248Z,21.90
2019-04-25T16:12:23.296Z,21.70
2019-04-25T16:14:51.346Z,21.50
2019-04-25T16:17:19.285Z,21.40
2019-04-25T16:19:47.484Z,21.30
2019-04-25T16:22:15.531Z,21.10
2019-04-25T16:24:43.779Z,21.10
2019-04-25T16:27:12.051Z,21.10
2019-04-25T16:29:40.054Z,21.00
2019-04-25T16:32:20.021Z,21.00
2019-04-25T16:34:39.955Z,20.90
2019-04-25T16:37:08.013Z,20.90
2019-04-25T16:39:36.204Z,20.90
2019-04-25T16:42:04.161Z,20.90
2019-04-25T16:44:32.201Z,20.90
2019-04-25T16:47:00.174Z,20.80
2019-04-25T16:49:29.831Z,20.80
2019-04-25T16:51:58.034Z,20.70
2019-04-25T16:54:25.968Z,20.70
2019-04-25T16:56:53.887Z,20.60
2019-04-25T16:59:21.951Z,20.60
2019-04-25T17:01:50.052Z,20.60
2019-04-25T17:04:19.935Z,20.60
2019-04-25T17:06:47.681Z,20.60
2019-04-25T17:09:16.046Z,20.60
2019-04-25T17:11:43.973Z,20.50
2019-04-25T17:14:16.358Z,20.50
2019-04-25T17:16:58.297Z,20.40
2019-04-25T17:19:30.798Z,20.40
2019-04-25T17:21:58.696Z,20.40
2019-04-25T17:24:26.660Z,20.40
2019-04-25T17:26:54.670Z,20.30
2019-04-25T17:29:22.614Z,20.30
2019-04-25T17:31:52.134Z,20.20
2019-04-25T17:34:27.780Z,20.00
2019-04-25T17:37:13.433Z,20.00
2019-04-25T17:39:43.046Z,20.00
2019-04-25T17:42:11.046Z,20.00
2019-04-25T17:44:39.060Z,20.00
2019-04-25T17:47:07.370Z,20.00
2019-04-25T17:49:35.410Z,19.90
2019-04-25T17:52:03.474Z,19.80
2019-04-25T17:54:32.842Z,19.80
2019-04-25T17:57:00.994Z,19.70
2019-04-25T17:59:28.951Z,19.70
2019-04-25T18:01:56.969Z,19.60
2019-04-25T18:04:24.931Z,19.50
2019-04-25T18:06:52.875Z,19.50
2019-04-25T18:09:20.926Z,19.50
2019-04-25T18:11:49.007Z,19.40
2019-04-25T18:14:16.966Z,19.30
2019-04-25T18:16:46.609Z,19.30
2019-04-25T18:19:32.350Z,19.30
2019-04-25T18:22:02.003Z,19.30
2019-04-25T18:24:31.496Z,19.20
2019-04-25T18:27:12.997Z,19.00
2019-04-25T18:29:41.616Z,19.00
2019-04-25T18:32:10.115Z,18.90
2019-04-25T18:34:40.105Z,18.90
2019-04-25T18:37:09.637Z,18.80
2019-04-25T18:39:46.196Z,18.90
2019-04-25T18:42:24.936Z,18.80
2019-04-25T18:44:52.943Z,18.90
2019-04-25T18:47:20.925Z,18.90
2019-04-25T18:49:49.037Z,18.90
2019-04-25T18:52:34.875Z,18.80
2019-04-25T18:55:13.181Z,18.80
2019-04-25T18:57:43.929Z,18.80
2019-04-25T19:00:29.835Z,18.80
2019-04-25T19:02:59.440Z,18.80
2019-04-25T19:05:41.036Z,18.70
2019-04-25T19:08:09.175Z,18.70
2019-04-25T19:10:37.135Z,18.60
2019-04-25T19:13:12.456Z,18.50
2019-04-25T19:15:34.765Z,18.40
2019-04-25T19:18:02.764Z,18.50
2019-04-25T19:20:30.724Z,18.30
2019-04-25T19:22:58.844Z,18.30
2019-04-25T19:25:26.946Z,18.20
2019-04-25T19:27:55.009Z,18.20
2019-04-25T19:30:23.044Z,18.30
2019-04-25T19:32:51.574Z,18.50
2019-04-25T19:35:19.686Z,18.40
2019-04-25T19:37:48.519Z,18.30
2019-04-25T19:40:32.866Z,18.20
2019-04-25T19:43:02.466Z,18.20
2019-04-25T19:45:30.427Z,18.20
2019-04-25T19:47:58.427Z,18.10
2019-04-25T19:50:26.446Z,18.10
2019-04-25T19:52:54.379Z,18.10
2019-04-25T19:55:22.308Z,18.10
2019-04-25T19:57:50.378Z,18.10
2019-04-25T20:00:18.737Z,18.10
2019-04-25T20:02:51.232Z,18.20
2019-04-25T20:05:23.330Z,18.20
2019-04-25T20:08:01.778Z,18.20
2019-04-25T20:10:31.410Z,18.10
2019-04-25T20:12:59.370Z,18.10
2019-04-25T20:15:27.362Z,18.00
2019-04-25T20:17:55.357Z,18.10
2019-04-25T20:20:23.365Z,18.00
2019-04-25T20:22:52.292Z,17.90
2019-04-25T20:25:20.418Z,17.80
2019-04-25T20:27:48.528Z,17.80
2019-04-25T20:30:16.593Z,17.70
2019-04-25T20:32:44.780Z,17.70
2019-04-25T20:35:13.740Z,17.60
2019-04-25T20:37:41.737Z,17.40
2019-04-25T20:40:09.674Z,17.40
2019-04-25T20:42:37.641Z,17.40
2019-04-25T20:45:07.181Z,17.40
2019-04-25T20:47:35.142Z,17.40
2019-04-25T20:50:03.403Z,17.40
2019-04-25T20:52:31.525Z,17.50
2019-04-25T20:55:00.482Z,17.50
2019-04-25T20:57:28.459Z,17.50
2019-04-25T20:59:56.424Z,17.50
2019-04-25T21:02:24.421Z,17.50
2019-04-25T21:04:52.350Z,17.50
2019-04-25T21:07:20.369Z,17.50
2019-04-25T21:09:48.984Z,17.40
2019-04-25T21:12:17.959Z,17.40
2019-04-25T21:14:50.708Z,17.50
2019-04-25T21:17:20.302Z,17.40
2019-04-25T21:19:52.853Z,17.30
2019-04-25T21:22:20.899Z,17.30
2019-04-25T21:24:49.493Z,17.30
2019-04-25T21:27:18.723Z,17.30
2019-04-25T21:29:46.741Z,17.20
2019-04-25T21:32:16.272Z,17.20
2019-04-25T21:34:44.233Z,17.20
2019-04-25T21:37:12.488Z,17.20
2019-04-25T21:39:51.457Z,17.20
2019-04-25T21:42:24.584Z,17.10
2019-04-25T21:44:52.858Z,17.10
2019-04-25T21:47:22.148Z,17.00
2019-04-25T21:49:50.417Z,17.00
2019-04-25T21:52:18.666Z,17.00
2019-04-25T21:54:48.576Z,17.00
2019-04-25T21:57:16.622Z,17.00
2019-04-25T21:59:44.848Z,17.00
2019-04-25T22:02:12.964Z,16.90
2019-04-25T22:04:41.662Z,16.90
2019-04-25T22:07:10.947Z,16.90
2019-04-25T22:09:39.186Z,16.80
2019-04-25T22:12:08.648Z,16.80
2019-04-25T22:14:36.561Z,16.90
2019-04-25T22:17:05.067Z,16.90
2019-04-25T22:19:34.026Z,16.90
2019-04-25T22:22:02.694Z,16.80
2019-04-25T22:24:30.838Z,16.80
2019-04-25T22:27:00.890Z,16.80
2019-04-25T22:29:28.894Z,16.70
2019-04-25T22:32:07.499Z,16.70
2019-04-25T22:34:52.379Z,16.70
2019-04-25T22:37:18.689Z,16.70
2019-04-25T22:39:46.855Z,16.70
2019-04-25T22:42:14.802Z,16.80
2019-04-25T22:44:42.803Z,16.70
2019-04-25T22:47:10.729Z,16.80
2019-04-25T22:49:38.691Z,16.70
2019-04-25T22:52:07.067Z,16.70
2019-04-25T22:54:35.126Z,16.60
2019-04-25T22:57:03.081Z,16.60
2019-04-25T22:59:32.201Z,16.60
2019-04-25T23:02:10.724Z,16.60
2019-04-25T23:05:05.274Z,16.50
2019-04-25T23:07:27.300Z,16.50
2019-04-25T23:09:55.863Z,16.50
2019-04-25T23:12:24.165Z,16.50
2019-04-25T23:14:52.124Z,16.60
2019-04-25T23:17:20.228Z,16.50
2019-04-25T23:19:48.535Z,16.60
2019-04-25T23:22:16.496Z,16.50
2019-04-25T23:24:48.773Z,16.50
2019-04-25T23:27:29.966Z,16.50
2019-04-25T23:29:57.900Z,16.60
2019-04-25T23:32:26.090Z,16.50
2019-04-25T23:34:54.127Z,16.40
2019-04-25T23:37:22.117Z,16.20
2019-04-25T23:39:50.158Z,16.10
2019-04-25T23:42:18.159Z,16.10
2019-04-25T23:44:46.323Z,16.10
2019-04-25T23:47:14.426Z,16.00
2019-04-25T23:49:42.479Z,16.20
2019-04-25T23:52:11.011Z,16.20
2019-04-25T23:54:39.014Z,16.30
2019-04-25T23:57:08.127Z,16.20
2019-04-25T23:59:36.452Z,16.20
